Chanute, Kansas
Current Conditions -  °F | °C
As of 1:52 AM on Friday 19 Dec 2014 (Local Time) from KCNU Reporting Station
Haze Haze  
Wind Chill: 30°   Ceiling: 300
Heat Index: 34°   Visibility: 3mi
Dew Point: 33°   Wind: 5mph
Humidity: 96%   Direction: 330°NNW
Pressure: 30.24"   Gusts: NA
Location:  37.68°N, 95.45°W
Report Text: KCNU 190752Z AUTO 33004KT 3SM BR OVC003 01/01 A3024 RMK AO2 SLP248 T00110006
Loading
Personal Weather Stations






























Interactive Weather Map New forecast layout! Learn more

10-Day Weather Forecast

Advertisements
Track Severe Weather on mobile